Time;durP1;ratioP1;P1;durP2;ratioP2;P2;SDS_P1;SDS_P2;PMS_P1;PMS_P2;Temp;Humidity;BMP_temperature;BMP_pressure;BME280_temperature;BME280_humidity;BME280_pressure;Samples;Min_cycle;Max_cycle;Signal;HPM_P1;HPM_P2
2022/04/04 00:00:50;;;;;;;3.83;3.50;;;;;;;;;;5071659;28;20048;-73
2022/04/04 00:03:15;;;;;;;3.63;3.33;;;;;;;;;;5086930;28;20478;-71
2022/04/04 00:05:42;;;;;;;3.92;3.63;;;;;;;;;;5106092;28;20047;-73
2022/04/04 00:08:07;;;;;;;4.38;3.97;;;;;;;;;;5090535;28;20396;-72
2022/04/04 00:10:33;;;;;;;3.60;3.30;;;;;;;;;;5090439;28;20082;-74
2022/04/04 00:12:59;;;;;;;4.47;3.58;;;;;;;;;;5091762;28;20043;-75
2022/04/04 00:15:25;;;;;;;4.10;3.42;;;;;;;;;;5091946;28;20530;-75
2022/04/04 00:17:51;;;;;;;4.60;3.53;;;;;;;;;;5091823;28;20067;-73
2022/04/04 00:20:17;;;;;;;3.92;3.60;;;;;;;;;;5073361;28;20177;-74
2022/04/04 00:22:43;;;;;;;3.33;3.13;;;;;;;;;;5091802;28;20048;-73
2022/04/04 00:25:09;;;;;;;4.70;4.25;;;;;;;;;;5091354;28;20456;-72
2022/04/04 00:27:35;;;;;;;4.15;3.60;;;;;;;;;;5090409;28;20071;-75
2022/04/04 00:30:02;;;;;;;3.53;3.20;;;;;;;;;;5090171;28;20039;-75
2022/04/04 00:32:29;;;;;;;5.10;4.00;;;;;;;;;;5073747;28;20036;-73
2022/04/04 00:34:55;;;;;;;4.38;3.97;;;;;;;;;;5091460;28;20048;-74
2022/04/04 00:37:22;;;;;;;3.92;3.47;;;;;;;;;;5089830;28;20025;-75
2022/04/04 00:39:48;;;;;;;5.20;3.58;;;;;;;;;;5090061;28;20046;-73
2022/04/04 00:42:14;;;;;;;4.03;3.70;;;;;;;;;;5090083;28;20036;-74
2022/04/04 00:44:40;;;;;;;3.25;3.05;;;;;;;;;;5089768;28;20538;-73
2022/04/04 00:47:07;;;;;;;3.47;3.20;;;;;;;;;;5090986;28;20036;-74
2022/04/04 00:49:33;;;;;;;3.80;3.28;;;;;;;;;;5091211;28;20074;-74
2022/04/04 00:51:59;;;;;;;3.88;3.50;;;;;;;;;;5089478;28;20039;-73
2022/04/04 00:54:24;;;;;;;4.53;3.30;;;;;;;;;;5091144;28;20117;-74
2022/04/04 00:56:50;;;;;;;4.80;3.75;;;;;;;;;;5090021;28;20128;-73
2022/04/04 00:59:16;;;;;;;4.63;4.18;;;;;;;;;;5089636;28;20075;-73
2022/04/04 01:09:31;;;;;;;3.47;3.17;;;;;;;;;;5089800;28;20081;-73
2022/04/04 01:12:15;;;;;;;4.60;3.78;;;;;;;;;;5089201;28;20074;-73
2022/04/04 01:14:46;;;;;;;6.97;3.67;;;;;;;;;;5089957;28;20056;-74
2022/04/04 01:17:12;;;;;;;4.30;3.30;;;;;;;;;;5090141;28;20569;-74
2022/04/04 01:19:37;;;;;;;3.90;3.60;;;;;;;;;;5090912;28;20062;-73
2022/04/04 01:22:04;;;;;;;4.00;3.70;;;;;;;;;;5072402;28;20044;-75
2022/04/04 01:24:31;;;;;;;4.30;3.92;;;;;;;;;;5089699;28;20075;-74
2022/04/04 01:26:57;;;;;;;4.43;3.70;;;;;;;;;;5089443;28;20500;-73
2022/04/04 01:29:23;;;;;;;5.15;3.88;;;;;;;;;;5090232;28;20043;-73
2022/04/04 01:31:49;;;;;;;5.32;3.88;;;;;;;;;;5090480;28;20044;-73
2022/04/04 01:34:16;;;;;;;4.00;3.70;;;;;;;;;;5090008;28;20036;-73
2022/04/04 01:36:42;;;;;;;4.53;3.47;;;;;;;;;;5089017;28;20062;-74
2022/04/04 01:39:08;;;;;;;5.38;3.80;;;;;;;;;;5090220;28;20526;-73
2022/04/04 01:41:34;;;;;;;3.80;3.50;;;;;;;;;;5089040;28;20042;-73
2022/04/04 01:44:00;;;;;;;6.60;3.88;;;;;;;;;;5090037;28;20555;-73
2022/04/04 01:46:27;;;;;;;3.97;3.67;;;;;;;;;;5088291;28;20040;-72
2022/04/04 01:48:53;;;;;;;4.07;3.42;;;;;;;;;;5088969;28;20044;-74
2022/04/04 01:51:19;;;;;;;4.65;4.25;;;;;;;;;;5088517;28;20043;-73
2022/04/04 01:53:45;;;;;;;4.03;3.72;;;;;;;;;;5072103;28;20083;-73
2022/04/04 01:56:11;;;;;;;5.15;3.75;;;;;;;;;;5089856;28;20051;-74
2022/04/04 01:58:37;;;;;;;4.50;4.10;;;;;;;;;;5088876;28;20068;-74
2022/04/04 02:01:08;;;;;;;4.95;4.07;;;;;;;;;;5088674;28;20047;-73
2022/04/04 02:03:35;;;;;;;5.72;4.40;;;;;;;;;;5088597;28;20052;-73
2022/04/04 02:06:02;;;;;;;5.53;4.10;;;;;;;;;;5089894;28;20039;-74
2022/04/04 02:08:28;;;;;;;5.53;4.10;;;;;;;;;;5075012;28;20031;-73
2022/04/04 02:10:54;;;;;;;4.97;4.25;;;;;;;;;;5094203;28;20423;-73
2022/04/04 02:13:20;;;;;;;6.22;4.53;;;;;;;;;;5093945;28;20047;-74
2022/04/04 02:15:46;;;;;;;5.32;4.68;;;;;;;;;;5092740;28;20074;-73
2022/04/04 02:18:12;;;;;;;7.88;4.40;;;;;;;;;;5094048;28;20438;-74
2022/04/04 02:20:38;;;;;;;4.53;4.13;;;;;;;;;;5094011;28;20450;-74
2022/04/04 02:23:04;;;;;;;6.60;4.60;;;;;;;;;;5094596;28;20044;-75
2022/04/04 02:25:30;;;;;;;4.55;3.92;;;;;;;;;;5093780;28;20044;-73
2022/04/04 02:27:56;;;;;;;4.40;4.00;;;;;;;;;;5093910;28;20503;-74
2022/04/04 02:30:22;;;;;;;5.40;3.50;;;;;;;;;;5093751;28;20411;-75
2022/04/04 02:32:48;;;;;;;6.07;3.80;;;;;;;;;;5094066;28;20040;-75
2022/04/04 02:35:14;;;;;;;4.20;3.80;;;;;;;;;;5093567;28;20048;-74
2022/04/04 02:37:43;;;;;;;5.90;4.45;;;;;;;;;;5093474;28;20052;-74
2022/04/04 02:40:09;;;;;;;6.95;4.60;;;;;;;;;;5092080;28;20036;-75
2022/04/04 02:42:36;;;;;;;5.85;4.32;;;;;;;;;;5091937;28;20040;-75
2022/04/04 02:45:03;;;;;;;5.40;4.82;;;;;;;;;;5092198;28;20040;-74
2022/04/04 02:47:29;;;;;;;5.45;4.70;;;;;;;;;;5093453;28;20077;-74
2022/04/04 02:49:55;;;;;;;4.97;4.25;;;;;;;;;;5092432;28;20143;-74
2022/04/04 02:52:21;;;;;;;5.57;4.97;;;;;;;;;;5092110;28;20527;-74
2022/04/04 02:54:47;;;;;;;5.85;4.75;;;;;;;;;;5093708;28;20051;-75
2022/04/04 02:57:16;;;;;;;7.63;4.13;;;;;;;;;;5093148;28;20040;-75
2022/04/04 02:59:42;;;;;;;4.90;4.40;;;;;;;;;;5092175;28;20396;-73
2022/04/04 03:02:08;;;;;;;5.05;4.50;;;;;;;;;;5093250;28;20090;-75
2022/04/04 03:04:35;;;;;;;4.18;3.88;;;;;;;;;;5092043;28;20054;-75
2022/04/04 03:07:01;;;;;;;4.25;3.85;;;;;;;;;;5093257;28;20036;-76
2022/04/04 03:09:27;;;;;;;5.70;3.85;;;;;;;;;;5093249;28;20044;-74
2022/04/04 03:11:54;;;;;;;9.02;4.32;;;;;;;;;;5091986;28;20036;-75
2022/04/04 03:14:20;;;;;;;6.03;4.45;;;;;;;;;;5092617;28;20056;-75
2022/04/04 03:16:46;;;;;;;6.93;4.80;;;;;;;;;;5093033;28;20051;-74
2022/04/04 03:19:12;;;;;;;4.78;4.38;;;;;;;;;;5091515;28;20051;-75
2022/04/04 03:21:39;;;;;;;5.40;4.75;;;;;;;;;;5091797;28;20051;-74
2022/04/04 03:24:06;;;;;;;11.88;4.40;;;;;;;;;;5092946;28;20044;-74
2022/04/04 03:26:32;;;;;;;4.95;4.50;;;;;;;;;;5091551;28;20063;-76
2022/04/04 03:28:58;;;;;;;7.25;5.45;;;;;;;;;;5093119;28;20036;-74
2022/04/04 03:31:24;;;;;;;6.80;4.78;;;;;;;;;;5092480;28;20039;-74
2022/04/04 03:33:50;;;;;;;6.13;4.40;;;;;;;;;;5091580;28;20059;-75
2022/04/04 03:36:16;;;;;;;10.43;5.13;;;;;;;;;;5091491;28;20515;-75
2022/04/04 03:38:42;;;;;;;6.28;5.13;;;;;;;;;;5074652;28;20071;-74
2022/04/04 03:41:09;;;;;;;7.40;5.30;;;;;;;;;;5092739;28;20079;-76
2022/04/04 03:43:35;;;;;;;6.82;4.50;;;;;;;;;;5074889;28;20237;-78
2022/04/04 03:46:01;;;;;;;5.32;4.82;;;;;;;;;;5092631;28;20147;-75
2022/04/04 03:48:27;;;;;;;5.50;5.00;;;;;;;;;;5092674;28;20040;-75
2022/04/04 03:50:54;;;;;;;5.10;4.70;;;;;;;;;;5093033;28;20044;-76
2022/04/04 03:53:21;;;;;;;5.07;4.63;;;;;;;;;;5092470;28;20040;-75
2022/04/04 03:55:47;;;;;;;14.95;5.00;;;;;;;;;;5092944;28;20105;-76
2022/04/04 03:58:13;;;;;;;5.65;5.15;;;;;;;;;;5091466;28;20044;-76
2022/04/04 04:00:39;;;;;;;8.05;4.43;;;;;;;;;;5093499;28;20528;-75
2022/04/04 04:03:05;;;;;;;6.35;5.75;;;;;;;;;;5096590;28;20097;-75
2022/04/04 04:05:30;;;;;;;5.25;4.18;;;;;;;;;;5098162;28;20036;-75
2022/04/04 04:07:56;;;;;;;8.70;4.53;;;;;;;;;;5098505;28;20051;-75
2022/04/04 04:10:22;;;;;;;6.90;5.28;;;;;;;;;;5099727;28;20032;-75
2022/04/04 04:12:48;;;;;;;6.20;5.70;;;;;;;;;;5098062;28;20079;-75
2022/04/04 04:15:15;;;;;;;5.35;4.72;;;;;;;;;;5097648;28;20062;-76
2022/04/04 04:17:41;;;;;;;9.38;5.80;;;;;;;;;;5098220;28;20044;-75
2022/04/04 04:20:19;;;;;;;6.60;5.80;;;;;;;;;;5094828;28;20083;-75
2022/04/04 04:22:48;;;;;;;7.45;4.50;;;;;;;;;;5092224;28;20503;-76
2022/04/04 04:25:17;;;;;;;12.52;5.70;;;;;;;;;;5090569;28;20139;-75
2022/04/04 04:27:43;;;;;;;8.02;6.10;;;;;;;;;;5090264;28;20032;-75
2022/04/04 04:30:09;;;;;;;5.63;5.20;;;;;;;;;;5091824;28;20411;-75
2022/04/04 04:32:35;;;;;;;7.15;5.90;;;;;;;;;;5091228;28;20070;-74
2022/04/04 04:35:01;;;;;;;5.80;5.30;;;;;;;;;;5091609;28;20044;-75
2022/04/04 04:37:27;;;;;;;7.70;5.45;;;;;;;;;;5090289;28;20504;-75
2022/04/04 04:39:53;;;;;;;5.60;4.90;;;;;;;;;;5090308;28;20040;-75
2022/04/04 04:42:19;;;;;;;9.20;5.78;;;;;;;;;;5090424;28;20105;-76
2022/04/04 04:44:46;;;;;;;7.03;5.95;;;;;;;;;;5090004;28;20048;-75
2022/04/04 04:47:12;;;;;;;7.60;4.43;;;;;;;;;;5091625;28;20058;-75
2022/04/04 04:49:38;;;;;;;7.05;5.22;;;;;;;;;;5089464;28;20515;-75
2022/04/04 04:52:04;;;;;;;6.30;5.07;;;;;;;;;;5091165;28;20127;-76
2022/04/04 04:54:30;;;;;;;9.98;5.45;;;;;;;;;;5073023;28;20553;-75
2022/04/04 04:56:56;;;;;;;6.45;5.10;;;;;;;;;;5072980;28;20035;-73
2022/04/04 04:59:22;;;;;;;3.97;3.67;;;;;;;;;;5078678;28;20070;-74
2022/04/04 05:01:49;;;;;;;8.70;5.55;;;;;;;;;;5100700;28;20032;-74
2022/04/04 05:04:15;;;;;;;7.90;6.07;;;;;;;;;;5064762;28;20044;-76
2022/04/04 05:06:41;;;;;;;9.52;6.20;;;;;;;;;;5070214;28;20036;-74
2022/04/04 05:09:07;;;;;;;5.65;4.97;;;;;;;;;;5072552;28;20127;-75
2022/04/04 05:11:33;;;;;;;4.43;3.75;;;;;;;;;;5089364;28;20560;-74
2022/04/04 05:13:59;;;;;;;5.90;5.32;;;;;;;;;;5087887;28;20051;-74
2022/04/04 05:16:28;;;;;;;18.83;5.07;;;;;;;;;;5088856;28;20036;-75
2022/04/04 05:18:55;;;;;;;6.57;4.53;;;;;;;;;;5090725;28;20082;-76
2022/04/04 05:21:25;;;;;;;6.25;5.43;;;;;;;;;;5076404;28;20051;-76
2022/04/04 05:23:51;;;;;;;12.15;6.15;;;;;;;;;;5090536;28;20536;-76
2022/04/04 05:26:17;;;;;;;8.43;5.53;;;;;;;;;;5089628;28;20075;-77
2022/04/04 05:28:42;;;;;;;10.07;6.55;;;;;;;;;;5088018;28;20043;-76
2022/04/04 05:31:08;;;;;;;7.57;6.30;;;;;;;;;;5089102;28;20149;-76
2022/04/04 05:33:35;;;;;;;9.30;5.95;;;;;;;;;;5109675;28;20039;-75
2022/04/04 05:36:02;;;;;;;7.15;6.07;;;;;;;;;;5112977;27;20146;-76
2022/04/04 05:38:28;;;;;;;9.30;5.95;;;;;;;;;;5088831;28;20043;-75
2022/04/04 05:40:54;;;;;;;6.60;5.70;;;;;;;;;;5088906;28;20044;-76
2022/04/04 05:43:20;;;;;;;6.35;4.97;;;;;;;;;;5090301;28;20064;-74
2022/04/04 05:45:47;;;;;;;7.85;6.50;;;;;;;;;;5109519;28;20408;-75
2022/04/04 05:48:13;;;;;;;6.18;5.57;;;;;;;;;;5109543;28;20410;-76
2022/04/04 05:50:39;;;;;;;6.93;6.18;;;;;;;;;;5107976;28;20055;-77
2022/04/04 05:53:05;;;;;;;6.38;5.78;;;;;;;;;;5095914;28;20397;-77
2022/04/04 05:55:31;;;;;;;5.63;5.22;;;;;;;;;;5089124;28;20531;-76
2022/04/04 05:57:56;;;;;;;10.20;5.68;;;;;;;;;;5087801;28;20044;-77
2022/04/04 06:00:22;;;;;;;6.03;5.15;;;;;;;;;;5090305;28;20040;-76
2022/04/04 06:02:48;;;;;;;6.78;6.07;;;;;;;;;;5087359;28;20047;-77
2022/04/04 06:05:14;;;;;;;6.45;5.85;;;;;;;;;;5089433;28;20546;-77
2022/04/04 06:07:40;;;;;;;5.50;4.82;;;;;;;;;;5087754;28;20040;-76
2022/04/04 06:10:07;;;;;;;8.40;5.85;;;;;;;;;;5085526;28;20077;-78
2022/04/04 06:12:36;;;;;;;6.90;6.30;;;;;;;;;;5097501;28;20516;-77
2022/04/04 06:15:02;;;;;;;6.57;5.45;;;;;;;;;;5070897;28;20048;-77
2022/04/04 06:17:29;;;;;;;9.70;5.70;;;;;;;;;;5088794;28;20050;-78
2022/04/04 06:19:55;;;;;;;6.13;5.60;;;;;;;;;;5092075;28;20023;-76
2022/04/04 06:22:22;;;;;;;8.60;6.30;;;;;;;;;;5096065;28;20089;-76
2022/04/04 06:24:48;;;;;;;8.32;6.57;;;;;;;;;;5087333;28;20434;-76
2022/04/04 06:27:15;;;;;;;7.75;5.80;;;;;;;;;;5088714;28;20416;-74
2022/04/04 06:29:41;;;;;;;7.97;6.03;;;;;;;;;;5088261;28;20579;-76
2022/04/04 06:32:09;;;;;;;6.95;6.05;;;;;;;;;;5087255;28;20131;-77
2022/04/04 06:34:35;;;;;;;7.45;6.43;;;;;;;;;;5087122;28;20044;-78
2022/04/04 06:37:01;;;;;;;7.40;6.50;;;;;;;;;;5087842;28;20032;-78
2022/04/04 06:39:27;;;;;;;8.23;6.22;;;;;;;;;;5087321;28;20044;-77
2022/04/04 06:41:54;;;;;;;7.07;6.38;;;;;;;;;;5088511;28;20131;-77
2022/04/04 06:44:20;;;;;;;7.35;6.65;;;;;;;;;;5086982;28;20105;-78
2022/04/04 06:46:46;;;;;;;9.73;6.68;;;;;;;;;;5088428;28;20048;-78
2022/04/04 06:49:12;;;;;;;7.07;6.40;;;;;;;;;;5070441;28;20043;-77
2022/04/04 06:51:38;;;;;;;7.03;6.43;;;;;;;;;;5087742;28;20144;-77
2022/04/04 06:54:05;;;;;;;7.25;6.55;;;;;;;;;;5090758;28;20127;-77
2022/04/04 06:56:31;;;;;;;5.55;5.07;;;;;;;;;;5090840;28;20067;-76
2022/04/04 06:58:58;;;;;;;7.93;6.95;;;;;;;;;;5090949;28;20511;-76
2022/04/04 07:01:23;;;;;;;5.95;5.22;;;;;;;;;;5090066;28;20568;-77
2022/04/04 07:03:49;;;;;;;6.15;5.70;;;;;;;;;;5090862;28;20151;-77
2022/04/04 07:06:16;;;;;;;7.82;6.82;;;;;;;;;;5090934;28;20044;-77
2022/04/04 07:08:42;;;;;;;10.88;6.63;;;;;;;;;;5091653;28;20048;-77
2022/04/04 07:11:10;;;;;;;9.90;5.85;;;;;;;;;;5090506;28;20040;-78
2022/04/04 07:13:37;;;;;;;6.75;4.38;;;;;;;;;;5056771;28;20106;-79
2022/04/04 07:16:03;;;;;;;6.05;5.35;;;;;;;;;;5091687;28;20042;-77
2022/04/04 07:18:29;;;;;;;6.78;6.07;;;;;;;;;;5091756;28;20100;-76
2022/04/04 07:20:55;;;;;;;7.85;5.93;;;;;;;;;;5097848;28;20512;-75
2022/04/04 07:23:21;;;;;;;6.07;5.57;;;;;;;;;;5091186;28;20074;-76
2022/04/04 07:25:47;;;;;;;5.60;5.20;;;;;;;;;;5073327;28;20044;-77
2022/04/04 07:28:14;;;;;;;8.48;4.65;;;;;;;;;;5091647;28;20502;-75
2022/04/04 07:30:40;;;;;;;6.03;5.53;;;;;;;;;;5091346;28;20534;-77
2022/04/04 07:33:08;;;;;;;6.43;5.07;;;;;;;;;;5089519;28;20048;-75
2022/04/04 07:35:33;;;;;;;5.53;4.57;;;;;;;;;;5091281;28;20036;-75
2022/04/04 07:37:59;;;;;;;4.80;4.40;;;;;;;;;;5091164;28;20706;-76
2022/04/04 07:40:27;;;;;;;5.45;4.90;;;;;;;;;;5089562;28;20048;-75
2022/04/04 07:42:53;;;;;;;5.07;4.32;;;;;;;;;;5079810;28;20044;-76
2022/04/04 07:45:19;;;;;;;6.78;4.60;;;;;;;;;;5088138;28;20050;-77
2022/04/04 07:47:45;;;;;;;4.57;4.28;;;;;;;;;;5090577;28;20419;-76
2022/04/04 07:50:13;;;;;;;3.95;3.65;;;;;;;;;;5091526;28;20051;-77
2022/04/04 07:52:40;;;;;;;3.97;3.67;;;;;;;;;;5092637;28;20048;-78
2022/04/04 07:55:06;;;;;;;4.93;4.53;;;;;;;;;;5072773;28;20047;-77
2022/04/04 07:57:32;;;;;;;4.47;4.07;;;;;;;;;;5091236;28;20482;-78
2022/04/04 07:59:58;;;;;;;10.30;4.38;;;;;;;;;;5092454;28;20048;-79
2022/04/04 08:02:24;;;;;;;3.22;3.03;;;;;;;;;;5089506;28;20051;-77
2022/04/04 08:04:50;;;;;;;4.72;4.32;;;;;;;;;;5089464;28;20052;-78
2022/04/04 08:07:19;;;;;;;5.30;4.90;;;;;;;;;;5088787;28;20123;-77
2022/04/04 08:09:46;;;;;;;2.40;2.30;;;;;;;;;;5088836;28;20034;-78
2022/04/04 08:12:12;;;;;;;5.18;3.22;;;;;;;;;;5088581;28;20075;-79
2022/04/04 08:14:39;;;;;;;3.70;3.40;;;;;;;;;;5088428;28;20543;-78
2022/04/04 08:17:05;;;;;;;3.97;3.67;;;;;;;;;;5070301;28;20113;-77
2022/04/04 08:19:32;;;;;;;4.82;4.28;;;;;;;;;;5088221;28;20036;-76
2022/04/04 08:21:57;;;;;;;3.13;2.92;;;;;;;;;;5091178;27;20083;-75
2022/04/04 08:24:24;;;;;;;4.30;4.00;;;;;;;;;;5090141;28;20064;-77
2022/04/04 08:26:53;;;;;;;3.83;3.53;;;;;;;;;;5088849;28;20529;-75
2022/04/04 08:29:26;;;;;;;4.25;3.90;;;;;;;;;;5089174;28;21053;-76
2022/04/04 08:31:53;;;;;;;3.92;3.53;;;;;;;;;;5089625;28;20502;-73
2022/04/04 08:34:19;;;;;;;4.00;3.70;;;;;;;;;;5079220;28;20034;-76
2022/04/04 08:36:45;;;;;;;4.13;3.15;;;;;;;;;;5088573;28;20138;-75
2022/04/04 08:39:11;;;;;;;3.88;3.58;;;;;;;;;;5089946;28;20130;-75
2022/04/04 08:41:37;;;;;;;3.72;3.42;;;;;;;;;;5088781;28;20059;-74
2022/04/04 08:44:03;;;;;;;4.03;3.70;;;;;;;;;;5079223;28;20075;-74
2022/04/04 08:46:29;;;;;;;3.60;3.40;;;;;;;;;;5089546;28;20040;-75
2022/04/04 08:48:58;;;;;;;3.83;3.10;;;;;;;;;;5090056;28;20058;-74
2022/04/04 08:51:25;;;;;;;4.63;3.90;;;;;;;;;;5088283;28;20139;-76
2022/04/04 08:53:50;;;;;;;4.13;3.90;;;;;;;;;;5089741;28;20044;-75
2022/04/04 08:56:18;;;;;;;4.75;3.80;;;;;;;;;;5089827;28;20491;-75
2022/04/04 08:58:46;;;;;;;8.00;3.92;;;;;;;;;;5089363;28;20036;-75
2022/04/04 09:01:12;;;;;;;4.47;4.15;;;;;;;;;;5088626;28;20125;-73
2022/04/04 09:03:38;;;;;;;3.85;3.55;;;;;;;;;;5089188;28;20140;-74
2022/04/04 09:06:05;;;;;;;4.13;3.70;;;;;;;;;;5088262;28;20519;-74
2022/04/04 09:08:42;;;;;;;4.13;3.78;;;;;;;;;;5087210;28;20052;-74
2022/04/04 09:11:08;;;;;;;5.30;3.70;;;;;;;;;;5087303;28;20062;-75
2022/04/04 09:13:34;;;;;;;3.28;2.97;;;;;;;;;;5095506;28;20048;-74
2022/04/04 09:16:01;;;;;;;3.97;3.67;;;;;;;;;;5073644;28;20048;-74
2022/04/04 09:18:42;;;;;;;3.55;3.25;;;;;;;;;;5108932;28;20418;-74
2022/04/04 09:21:12;;;;;;;4.20;3.80;;;;;;;;;;5091020;28;20088;-75
2022/04/04 09:23:45;;;;;;;2.78;2.65;;;;;;;;;;5109311;28;20052;-75
2022/04/04 09:26:30;;;;;;;4.07;3.78;;;;;;;;;;5109748;28;20043;-74
2022/04/04 09:28:58;;;;;;;3.70;3.40;;;;;;;;;;5109600;28;20072;-74
2022/04/04 09:31:24;;;;;;;5.80;3.58;;;;;;;;;;5090965;28;20597;-74
2022/04/04 09:33:50;;;;;;;2.97;2.78;;;;;;;;;;5109934;28;20044;-74
2022/04/04 09:36:16;;;;;;;3.35;3.05;;;;;;;;;;5092286;28;20040;-75
2022/04/04 09:39:14;;;;;;;3.95;3.65;;;;;;;;;;5091520;28;20044;-75
2022/04/04 09:41:40;;;;;;;6.82;4.18;;;;;;;;;;5075010;28;20148;-74
2022/04/04 09:44:08;;;;;;;4.22;3.83;;;;;;;;;;5092049;28;20043;-74
2022/04/04 09:46:35;;;;;;;5.88;4.10;;;;;;;;;;5103624;28;20067;-74
2022/04/04 09:49:04;;;;;;;4.13;3.83;;;;;;;;;;5090215;28;20043;-73
2022/04/04 09:51:37;;;;;;;4.85;4.45;;;;;;;;;;5091434;28;20079;-75
2022/04/04 09:54:04;;;;;;;6.03;4.32;;;;;;;;;;5058084;28;20056;-74
2022/04/04 09:56:30;;;;;;;4.72;4.43;;;;;;;;;;5076570;28;20036;-74
2022/04/04 09:58:56;;;;;;;5.90;3.75;;;;;;;;;;5090912;28;20450;-74
2022/04/04 10:01:22;;;;;;;9.38;4.07;;;;;;;;;;5089417;28;20145;-75
2022/04/04 10:03:49;;;;;;;6.38;4.03;;;;;;;;;;5071175;28;20056;-74
2022/04/04 10:06:14;;;;;;;3.28;3.08;;;;;;;;;;5071204;28;20126;-74
2022/04/04 10:08:42;;;;;;;4.25;3.83;;;;;;;;;;5088483;28;20083;-74
2022/04/04 10:11:08;;;;;;;4.22;3.80;;;;;;;;;;5071328;28;20048;-74
2022/04/04 10:13:34;;;;;;;4.95;3.88;;;;;;;;;;5088215;28;20060;-74
2022/04/04 10:16:00;;;;;;;4.57;4.13;;;;;;;;;;5070951;28;20479;-74
2022/04/04 10:18:26;;;;;;;5.07;4.68;;;;;;;;;;5076998;28;20489;-74
2022/04/04 10:20:55;;;;;;;5.18;3.50;;;;;;;;;;5097496;28;20036;-74
2022/04/04 10:23:22;;;;;;;4.63;4.22;;;;;;;;;;5108725;28;20473;-74
2022/04/04 10:25:51;;;;;;;7.22;4.20;;;;;;;;;;5107365;28;20031;-74
2022/04/04 10:28:33;;;;;;;3.17;2.83;;;;;;;;;;5108747;28;20047;-73
2022/04/04 10:30:59;;;;;;;6.38;3.58;;;;;;;;;;5092228;28;20052;-73
2022/04/04 10:33:25;;;;;;;3.20;3.00;;;;;;;;;;5092281;28;20093;-73
2022/04/04 10:36:20;;;;;;;2.92;2.67;;;;;;;;;;5091056;28;20512;-73
2022/04/04 10:38:46;;;;;;;3.83;3.50;;;;;;;;;;5090172;28;20039;-73
2022/04/04 10:41:20;;;;;;;3.42;3.13;;;;;;;;;;5091441;28;20036;-74
2022/04/04 10:43:47;;;;;;;3.70;3.40;;;;;;;;;;5089519;28;20059;-74
2022/04/04 10:46:14;;;;;;;6.20;5.55;;;;;;;;;;5088946;28;20071;-73
2022/04/04 10:48:40;;;;;;;5.25;4.63;;;;;;;;;;5088614;28;20048;-74
2022/04/04 10:51:11;;;;;;;6.05;5.20;;;;;;;;;;5090625;28;20071;-74
2022/04/04 10:53:44;;;;;;;2.88;2.67;;;;;;;;;;5090506;28;20076;-74
2022/04/04 10:56:11;;;;;;;3.42;3.20;;;;;;;;;;5091072;28;20071;-74
2022/04/04 10:58:37;;;;;;;2.63;2.53;;;;;;;;;;5089681;28;20098;-75
2022/04/04 11:01:07;;;;;;;2.30;2.20;;;;;;;;;;5091863;28;20048;-74
2022/04/04 11:03:34;;;;;;;2.75;2.55;;;;;;;;;;5091418;28;20104;-72
2022/04/04 11:09:04;;;;;;;2.80;2.42;;;;;;;;;;5090638;28;20461;-75
2022/04/04 11:11:49;;;;;;;2.90;2.70;;;;;;;;;;5091772;28;20046;-74
2022/04/04 11:14:19;;;;;;;3.05;2.75;;;;;;;;;;5089522;28;20043;-73
2022/04/04 11:17:03;;;;;;;2.50;2.28;;;;;;;;;;5094781;28;20039;-75
2022/04/04 11:19:29;;;;;;;2.70;2.50;;;;;;;;;;5111668;28;20101;-74
2022/04/04 11:21:55;;;;;;;2.60;2.50;;;;;;;;;;5094555;28;20414;-73
2022/04/04 11:24:20;;;;;;;3.35;2.70;;;;;;;;;;5112685;28;20059;-74
2022/04/04 11:26:46;;;;;;;2.08;1.95;;;;;;;;;;5112620;28;20066;-73
2022/04/04 11:29:15;;;;;;;3.38;2.78;;;;;;;;;;5112790;28;20055;-74
2022/04/04 11:31:51;;;;;;;2.80;2.60;;;;;;;;;;5078704;28;20066;-73
2022/04/04 11:34:17;;;;;;;3.03;2.83;;;;;;;;;;5103622;28;20044;-73
2022/04/04 11:36:43;;;;;;;2.00;2.00;;;;;;;;;;5092288;28;20593;-73
2022/04/04 11:39:10;;;;;;;4.50;2.40;;;;;;;;;;5074028;28;20036;-73
2022/04/04 11:41:39;;;;;;;2.92;2.72;;;;;;;;;;5074228;28;20051;-74
2022/04/04 11:44:05;;;;;;;2.17;2.00;;;;;;;;;;5092404;28;20056;-75
2022/04/04 11:46:32;;;;;;;2.08;1.83;;;;;;;;;;5092102;28;20036;-74
2022/04/04 11:48:59;;;;;;;1.90;1.80;;;;;;;;;;5091613;28;20109;-75
2022/04/04 11:51:25;;;;;;;2.38;2.20;;;;;;;;;;5092009;28;20460;-75
2022/04/04 11:54:04;;;;;;;1.67;1.67;;;;;;;;;;5073952;28;20047;-75
2022/04/04 11:56:31;;;;;;;2.72;2.53;;;;;;;;;;5056668;28;20047;-75
2022/04/04 11:58:57;;;;;;;2.75;2.55;;;;;;;;;;5091961;28;20058;-74
2022/04/04 12:01:33;;;;;;;2.22;2.13;;;;;;;;;;5073828;28;20047;-75
2022/04/04 12:04:00;;;;;;;2.55;2.45;;;;;;;;;;5086639;28;20519;-75
2022/04/04 12:06:29;;;;;;;4.10;2.47;;;;;;;;;;5077718;28;20040;-74
2022/04/04 12:08:57;;;;;;;2.25;2.00;;;;;;;;;;5111355;28;20047;-73
2022/04/04 12:11:28;;;;;;;2.38;2.28;;;;;;;;;;5091653;28;20036;-75
2022/04/04 12:13:56;;;;;;;;;;;;;;;;;;5091425;28;20798;-74
2022/04/04 12:16:25;;;;;;;1.77;1.67;;;;;;;;;;5091784;28;19918;-75
2022/04/04 12:18:54;;;;;;;3.25;2.25;;;;;;;;;;5091522;28;20040;-75
2022/04/04 12:21:23;;;;;;;3.10;2.70;;;;;;;;;;5091776;28;20036;-74
2022/04/04 12:26:35;;;;;;;2.45;2.25;;;;;;;;;;5091344;28;20123;-74
2022/04/04 12:29:03;;;;;;;3.85;2.42;;;;;;;;;;5091152;28;20053;-75
2022/04/04 12:31:28;;;;;;;4.72;2.60;;;;;;;;;;5090609;28;20078;-75
2022/04/04 12:34:04;;;;;;;2.53;2.05;;;;;;;;;;5091797;28;20071;-74
2022/04/04 12:36:30;;;;;;;2.50;2.30;;;;;;;;;;5090127;28;20047;-75
2022/04/04 12:38:59;;;;;;;3.58;3.08;;;;;;;;;;5090007;28;20066;-75
2022/04/04 12:41:25;;;;;;;3.50;2.95;;;;;;;;;;5091616;28;20075;-76
2022/04/04 12:44:01;;;;;;;2.90;2.58;;;;;;;;;;5090838;28;20131;-75
2022/04/04 12:46:28;;;;;;;2.55;2.35;;;;;;;;;;5090204;28;20138;-76
2022/04/04 12:48:55;;;;;;;3.00;2.38;;;;;;;;;;5090414;28;20322;-73
2022/04/04 12:51:29;;;;;;;2.75;2.55;;;;;;;;;;5089652;28;20058;-75
2022/04/04 12:53:55;;;;;;;4.05;2.60;;;;;;;;;;5090576;28;20036;-75
2022/04/04 12:56:20;;;;;;;2.70;2.50;;;;;;;;;;5091439;28;20119;-75
2022/04/04 12:59:06;;;;;;;3.97;2.90;;;;;;;;;;5090720;28;20085;-75
2022/04/04 13:01:31;;;;;;;2.53;2.42;;;;;;;;;;5090969;28;20134;-75
2022/04/04 13:03:57;;;;;;;2.90;2.70;;;;;;;;;;5102308;28;20138;-75
2022/04/04 13:06:24;;;;;;;2.90;2.60;;;;;;;;;;5111246;28;20123;-74
2022/04/04 13:08:57;;;;;;;2.75;2.65;;;;;;;;;;5092773;28;20152;-75
2022/04/04 13:11:24;;;;;;;3.33;1.92;;;;;;;;;;5069346;28;20033;-74
2022/04/04 13:14:08;;;;;;;2.70;2.55;;;;;;;;;;5068344;28;20597;-75
2022/04/04 13:16:35;;;;;;;3.03;2.80;;;;;;;;;;5086201;28;20075;-72
2022/04/04 13:19:01;;;;;;;3.05;2.72;;;;;;;;;;5069375;28;20045;-75
2022/04/04 13:21:27;;;;;;;4.75;2.83;;;;;;;;;;5068896;28;20131;-74
2022/04/04 13:23:53;;;;;;;2.80;2.60;;;;;;;;;;5070036;28;20186;-74
2022/04/04 13:26:19;;;;;;;5.72;2.00;;;;;;;;;;5070713;28;20117;-75
2022/04/04 13:28:44;;;;;;;3.08;2.85;;;;;;;;;;5070418;28;20515;-76
2022/04/04 13:31:10;;;;;;;2.13;2.03;;;;;;;;;;5053229;28;20049;-76
2022/04/04 13:33:36;;;;;;;3.00;2.80;;;;;;;;;;5070833;28;20064;-74
2022/04/04 13:36:04;;;;;;;3.08;2.83;;;;;;;;;;5070787;28;20068;-75
2022/04/04 13:38:29;;;;;;;2.65;2.50;;;;;;;;;;5069613;28;20115;-75
2022/04/04 13:40:55;;;;;;;2.67;2.47;;;;;;;;;;5068998;28;20032;-74
2022/04/04 13:43:21;;;;;;;2.90;2.70;;;;;;;;;;5070381;28;20056;-74
2022/04/04 13:45:47;;;;;;;2.85;2.55;;;;;;;;;;5069719;28;20071;-75
2022/04/04 13:48:13;;;;;;;1.63;1.55;;;;;;;;;;5069380;28;20041;-75
2022/04/04 13:50:39;;;;;;;2.55;2.35;;;;;;;;;;5070140;28;20070;-75
2022/04/04 13:53:05;;;;;;;2.22;2.03;;;;;;;;;;5069962;28;20072;-76
2022/04/04 13:55:31;;;;;;;2.50;2.38;;;;;;;;;;5084346;28;20040;-74
2022/04/04 13:57:56;;;;;;;2.65;2.50;;;;;;;;;;5089901;28;20044;-75
2022/04/04 14:00:22;;;;;;;2.75;2.55;;;;;;;;;;5090496;28;20416;-74
2022/04/04 14:02:48;;;;;;;1.73;1.63;;;;;;;;;;5093587;28;20130;-74
2022/04/04 14:05:14;;;;;;;2.60;2.40;;;;;;;;;;5112915;28;20154;-74
2022/04/04 14:07:40;;;;;;;5.38;2.30;;;;;;;;;;5106301;28;20066;-75
2022/04/04 14:10:07;;;;;;;3.17;2.88;;;;;;;;;;5075882;28;20134;-75
2022/04/04 14:12:35;;;;;;;3.10;2.90;;;;;;;;;;5093149;28;20392;-75
2022/04/04 14:15:02;;;;;;;2.83;2.60;;;;;;;;;;5092688;28;20040;-75
2022/04/04 14:17:29;;;;;;;2.67;2.58;;;;;;;;;;5091544;28;20050;-74
2022/04/04 14:19:54;;;;;;;2.97;2.53;;;;;;;;;;5093564;28;20408;-74
2022/04/04 14:22:21;;;;;;;3.38;2.30;;;;;;;;;;5059441;28;20043;-75
2022/04/04 14:24:49;;;;;;;3.00;2.80;;;;;;;;;;5092932;28;20509;-75
2022/04/04 14:27:15;;;;;;;3.30;2.90;;;;;;;;;;5093296;28;20082;-75
2022/04/04 14:29:41;;;;;;;2.67;2.47;;;;;;;;;;5093276;28;20028;-75
2022/04/04 14:32:07;;;;;;;2.90;2.70;;;;;;;;;;5094436;28;20047;-74
2022/04/04 14:34:33;;;;;;;3.03;2.70;;;;;;;;;;5092939;28;20105;-74
2022/04/04 14:36:59;;;;;;;2.60;2.40;;;;;;;;;;5093908;28;20143;-74
2022/04/04 14:39:25;;;;;;;3.15;2.67;;;;;;;;;;5093867;28;20131;-74
2022/04/04 14:41:53;;;;;;;2.95;2.75;;;;;;;;;;5099264;28;20036;-74
2022/04/04 14:44:18;;;;;;;2.63;2.45;;;;;;;;;;5100602;28;20063;-74
2022/04/04 14:46:44;;;;;;;2.70;2.50;;;;;;;;;;5098297;28;20059;-74
2022/04/04 14:49:12;;;;;;;2.83;2.50;;;;;;;;;;5093793;28;20032;-74
2022/04/04 14:51:37;;;;;;;2.83;2.58;;;;;;;;;;5093680;28;20126;-75
2022/04/04 14:54:30;;;;;;;2.92;2.40;;;;;;;;;;5093180;28;20126;-75
2022/04/04 14:57:05;;;;;;;2.70;2.28;;;;;;;;;;5076540;28;20415;-75